ENCN Airport Information

Runway Information
Runway 03 Length 6660 ft width 148 ft
Elevation 41 ft Threshold 394 ft Heading 35
Runway 21 Length 6660 ft Width 148 ft
Elevation 52 ft Threshold 623 ft Heading 215
Airport Frequencies
Type ATIS Name INFO Frequency 124.475 MHZ
Type TWR Name TWR Frequency 118.1 MHZ
Airport Navaids
Type NDB Name Odderoy Frequency 372 KHZ
Type VOR-DME Name Svensheia Frequency 112100 KHZ
Airport Weather Information & NOTAM
ADDS - METARS form results

(1443 UTC 14 August 2022)
Data provider http://aviationweather.gov/metar/data/
 
METAR text: ENCN 141420Z 11006KT CAVOK 23/13 Q1014
Conditions at: ENCN (KRISTIANSAND/KJE, NO) observed 1420 UTC 14 August 2022
Temperature: 23.0°C (73°F)
Dewpoint: 13.0°C (55°F) [RH = 53%]
Pressure (altimeter): 29.94 inches Hg (1014.0 mb)
Winds: from the ESE (110 degrees) at 7 MPH (6 knots; 3.1 m/s)
Visibility: 6 or more miles (10+ km)
Ceiling: ceiling and visibility are OK
Clouds: unknown
Weather: no significant weather observed at this time

METAR text: ENCN 141350Z VRB03KT CAVOK 25/15 Q1014
Conditions at: ENCN (KRISTIANSAND/KJE, NO) observed 1350 UTC 14 August 2022
Temperature: 25.0°C (77°F)
Dewpoint: 15.0°C (59°F) [RH = 54%]
Pressure (altimeter): 29.94 inches Hg (1014.0 mb)
Winds: variable direction winds at 3 MPH (3 knots; 1.5 m/s)
Visibility: 6 or more miles (10+ km)
Ceiling: ceiling and visibility are OK
Clouds: unknown
Weather: no significant weather observed at this time

Forecast for: ENCN (KRISTIANSAND/KJE, NO)
Text: TAF ENCN 141400Z 1415/1422 11008KT CAVOK
Forecast period: 1500 to 2200 UTC 14 August 2022
Forecast type: FROM: standard forecast or significant change
Winds: from the ESE (110 degrees) at 9 MPH (8 knots; 4.1 m/s)
Visibility: 6 or more miles (10+ km)
Ceiling: unknown
Clouds: missing
Weather: NSW  (no significant weather)